sensor_id;sensor_type;location;lat;lon;timestamp;pressure;altitude;pressure_sealevel;temperature;humidity
67430;BME280;54298;52.076;5.264;2023-01-29T00:01:31;102947.0;;;4.79;72.08
67430;BME280;54298;52.076;5.264;2023-01-29T00:04:44;102941.00000000001;;;4.82;72.05
67430;BME280;54298;52.076;5.264;2023-01-29T00:06:22;102943.0;;;4.88;71.87
67430;BME280;54298;52.076;5.264;2023-01-29T00:08:01;102942.0;;;4.82;72.02
67430;BME280;54298;52.076;5.264;2023-01-29T00:09:37;102934.99999999999;;;4.83;71.94
67430;BME280;54298;52.076;5.264;2023-01-29T00:12:52;102933.99999999999;;;4.82;72.06
67430;BME280;54298;52.076;5.264;2023-01-29T00:14:29;102928.0;;;4.79;72.16
67430;BME280;54298;52.076;5.264;2023-01-29T00:16:05;102922.0;;;4.75;72.44
67430;BME280;54298;52.076;5.264;2023-01-29T00:19:20;102918.0;;;4.76;72.41
67430;BME280;54298;52.076;5.264;2023-01-29T00:20:57;102911.99999999999;;;4.84;72.22
67430;BME280;54298;52.076;5.264;2023-01-29T00:22:33;102905.0;;;4.86;72.12
67430;BME280;54298;52.076;5.264;2023-01-29T00:25:47;102904.0;;;4.87;72.03
67430;BME280;54298;52.076;5.264;2023-01-29T00:27:24;102907.0;;;4.82;72.11
67430;BME280;54298;52.076;5.264;2023-01-29T00:29:01;102899.0;;;4.82;72.0
67430;BME280;54298;52.076;5.264;2023-01-29T00:30:38;102899.0;;;4.87;71.98
67430;BME280;54298;52.076;5.264;2023-01-29T00:33:52;102896.0;;;4.82;72.11
67430;BME280;54298;52.076;5.264;2023-01-29T00:35:29;102899.0;;;4.86;72.09
67430;BME280;54298;52.076;5.264;2023-01-29T00:37:07;102906.0;;;4.82;72.25
67430;BME280;54298;52.076;5.264;2023-01-29T00:40:22;102908.99999999999;;;4.79;72.44
67430;BME280;54298;52.076;5.264;2023-01-29T00:46:09;102913.00000000001;;;4.71;72.91
67430;BME280;54298;52.076;5.264;2023-01-29T00:47:46;102906.0;;;4.72;72.91
67430;BME280;54298;52.076;5.264;2023-01-29T00:49:23;102907.0;;;4.78;72.83
67430;BME280;54298;52.076;5.264;2023-01-29T00:52:40;102898.0;;;4.78;72.86
67430;BME280;54298;52.076;5.264;2023-01-29T00:54:18;102900.0;;;4.84;72.7
67430;BME280;54298;52.076;5.264;2023-01-29T00:55:54;102898.0;;;4.93;72.42
67430;BME280;54298;52.076;5.264;2023-01-29T00:59:10;102897.0;;;4.91;72.58
67430;BME280;54298;52.076;5.264;2023-01-29T01:00:48;102889.00000000001;;;4.83;72.72
67430;BME280;54298;52.076;5.264;2023-01-29T01:03:29;102886.99999999999;;;4.76;73.08
67430;BME280;54298;52.076;5.264;2023-01-29T01:05:09;102892.0;;;4.87;72.83
67430;BME280;54298;52.076;5.264;2023-01-29T01:06:51;102884.99999999999;;;4.89;72.66
67430;BME280;54298;52.076;5.264;2023-01-29T01:10:57;102886.99999999999;;;4.82;72.77
67430;BME280;54298;52.076;5.264;2023-01-29T01:12:34;102880.0;;;4.84;72.87
67430;BME280;54298;52.076;5.264;2023-01-29T01:15:47;102878.0;;;4.87;72.66
67430;BME280;54298;52.076;5.264;2023-01-29T01:17:24;102878.0;;;4.8;72.75
67430;BME280;54298;52.076;5.264;2023-01-29T01:19:02;102873.0;;;4.78;72.84
67430;BME280;54298;52.076;5.264;2023-01-29T01:22:16;102868.0;;;4.93;72.45
67430;BME280;54298;52.076;5.264;2023-01-29T01:23:53;102869.0;;;4.92;72.45
67430;BME280;54298;52.076;5.264;2023-01-29T01:25:29;102868.0;;;4.89;72.33
67430;BME280;54298;52.076;5.264;2023-01-29T01:27:06;102867.0;;;4.95;72.19
67430;BME280;54298;52.076;5.264;2023-01-29T01:30:19;102871.0;;;5.03;71.98
67430;BME280;54298;52.076;5.264;2023-01-29T01:31:58;102870.0;;;5.03;71.86
67430;BME280;54298;52.076;5.264;2023-01-29T01:33:36;102882.0;;;5.04;71.8
67430;BME280;54298;52.076;5.264;2023-01-29T01:36:51;102884.99999999999;;;4.97;71.91
67430;BME280;54298;52.076;5.264;2023-01-29T01:38:28;102889.00000000001;;;4.99;71.89
67430;BME280;54298;52.076;5.264;2023-01-29T01:40:14;102884.99999999999;;;4.95;71.98
67430;BME280;54298;52.076;5.264;2023-01-29T01:41:53;102891.00000000001;;;4.75;72.66
67430;BME280;54298;52.076;5.264;2023-01-29T01:45:25;102889.00000000001;;;4.74;72.92
67430;BME280;54298;52.076;5.264;2023-01-29T01:47:03;102877.0;;;4.66;73.14
67430;BME280;54298;52.076;5.264;2023-01-29T01:48:41;102881.0;;;4.8;72.8
67430;BME280;54298;52.076;5.264;2023-01-29T01:50:23;102886.99999999999;;;4.82;72.72
67430;BME280;54298;52.076;5.264;2023-01-29T01:53:42;102883.99999999999;;;4.87;72.53
67430;BME280;54298;52.076;5.264;2023-01-29T01:55:25;102886.99999999999;;;4.91;72.3
67430;BME280;54298;52.076;5.264;2023-01-29T01:57:12;102883.0;;;4.93;72.02
67430;BME280;54298;52.076;5.264;2023-01-29T01:58:52;102890.00000000001;;;5.0;71.69
67430;BME280;54298;52.076;5.264;2023-01-29T02:00:31;102892.0;;;4.99;71.66
67430;BME280;54298;52.076;5.264;2023-01-29T02:10:31;102881.0;;;5.0;71.44
67430;BME280;54298;52.076;5.264;2023-01-29T02:12:13;102888.00000000001;;;5.05;71.38
67430;BME280;54298;52.076;5.264;2023-01-29T02:13:52;102886.99999999999;;;5.07;71.23
67430;BME280;54298;52.076;5.264;2023-01-29T02:15:29;102892.0;;;5.03;71.27
67430;BME280;54298;52.076;5.264;2023-01-29T02:18:47;102888.00000000001;;;5.11;71.19
67430;BME280;54298;52.076;5.264;2023-01-29T02:20:26;102883.0;;;5.03;71.38
67430;BME280;54298;52.076;5.264;2023-01-29T02:22:15;102883.99999999999;;;4.99;71.42
67430;BME280;54298;52.076;5.264;2023-01-29T02:26:39;102880.0;;;5.0;71.52
67430;BME280;54298;52.076;5.264;2023-01-29T02:28:30;102874.0;;;5.04;71.31
67430;BME280;54298;52.076;5.264;2023-01-29T02:30:16;102878.0;;;5.0;71.52
67430;BME280;54298;52.076;5.264;2023-01-29T02:32:08;102880.0;;;5.04;71.37
67430;BME280;54298;52.076;5.264;2023-01-29T02:35:51;102881.0;;;4.99;71.52
67430;BME280;54298;52.076;5.264;2023-01-29T02:37:38;102876.0;;;4.91;71.87
67430;BME280;54298;52.076;5.264;2023-01-29T02:39:26;102889.00000000001;;;4.96;71.61
67430;BME280;54298;52.076;5.264;2023-01-29T02:41:08;102890.00000000001;;;4.82;72.08
67430;BME280;54298;52.076;5.264;2023-01-29T02:42:55;102896.0;;;4.91;71.97
67430;BME280;54298;52.076;5.264;2023-01-29T02:44:39;102895.0;;;4.99;71.74
67430;BME280;54298;52.076;5.264;2023-01-29T02:48:04;102894.0;;;4.92;71.97
67430;BME280;54298;52.076;5.264;2023-01-29T02:49:45;102892.0;;;4.86;72.22
67430;BME280;54298;52.076;5.264;2023-01-29T02:51:30;102896.0;;;4.92;72.06
67430;BME280;54298;52.076;5.264;2023-01-29T02:53:14;102894.0;;;4.89;72.14
67430;BME280;54298;52.076;5.264;2023-01-29T02:56:38;102897.0;;;4.97;71.84
67430;BME280;54298;52.076;5.264;2023-01-29T02:58:26;102901.0;;;5.0;71.94
67430;BME280;54298;52.076;5.264;2023-01-29T03:00:10;102893.0;;;5.0;71.94
67430;BME280;54298;52.076;5.264;2023-01-29T03:01:52;102899.0;;;5.0;71.75
67430;BME280;54298;52.076;5.264;2023-01-29T03:03:35;102897.0;;;4.99;71.88
67430;BME280;54298;52.076;5.264;2023-01-29T03:07:03;102895.0;;;5.03;71.78
67430;BME280;54298;52.076;5.264;2023-01-29T03:08:46;102892.0;;;4.87;72.08
67430;BME280;54298;52.076;5.264;2023-01-29T03:10:37;102889.00000000001;;;4.74;72.74
67430;BME280;54298;52.076;5.264;2023-01-29T03:12:20;102883.0;;;4.82;72.63
67430;BME280;54298;52.076;5.264;2023-01-29T03:14:10;102888.00000000001;;;4.88;72.55
67430;BME280;54298;52.076;5.264;2023-01-29T03:15:59;102884.99999999999;;;4.86;72.81
67430;BME280;54298;52.076;5.264;2023-01-29T03:19:28;102879.0;;;4.89;72.75
67430;BME280;54298;52.076;5.264;2023-01-29T03:21:51;102873.0;;;4.91;72.77
67430;BME280;54298;52.076;5.264;2023-01-29T03:32:15;102865.00000000001;;;4.82;73.36
67430;BME280;54298;52.076;5.264;2023-01-29T03:34:00;102866.00000000001;;;4.92;73.3
67430;BME280;54298;52.076;5.264;2023-01-29T03:35:51;102858.0;;;4.95;73.23
67430;BME280;54298;52.076;5.264;2023-01-29T03:37:35;102853.0;;;5.01;73.05
67430;BME280;54298;52.076;5.264;2023-01-29T03:39:15;102840.00000000001;;;5.03;72.77
67430;BME280;54298;52.076;5.264;2023-01-29T03:42:43;102841.00000000001;;;5.03;72.91
67430;BME280;54298;52.076;5.264;2023-01-29T03:44:31;102832.0;;;5.03;72.91
67430;BME280;54298;52.076;5.264;2023-01-29T03:46:21;102834.99999999999;;;5.01;72.84
67430;BME280;54298;52.076;5.264;2023-01-29T03:48:05;102838.00000000001;;;5.07;72.56
67430;BME280;54298;52.076;5.264;2023-01-29T03:49:55;102840.00000000001;;;5.0;72.83
67430;BME280;54298;52.076;5.264;2023-01-29T03:51:37;102831.0;;;4.99;72.97
67430;BME280;54298;52.076;5.264;2023-01-29T03:55:11;102834.99999999999;;;4.93;73.09
67430;BME280;54298;52.076;5.264;2023-01-29T03:56:55;102833.99999999999;;;5.03;72.77
67430;BME280;54298;52.076;5.264;2023-01-29T03:58:37;102830.0;;;4.95;72.8
67430;BME280;54298;52.076;5.264;2023-01-29T04:00:22;102840.00000000001;;;4.96;72.69
67430;BME280;54298;52.076;5.264;2023-01-29T04:02:05;102838.00000000001;;;4.78;73.14
67430;BME280;54298;52.076;5.264;2023-01-29T04:05:32;102829.0;;;4.89;72.91
67430;BME280;54298;52.076;5.264;2023-01-29T04:07:16;102825.0;;;4.82;73.09
67430;BME280;54298;52.076;5.264;2023-01-29T04:08:58;102826.0;;;4.76;73.03
67430;BME280;54298;52.076;5.264;2023-01-29T04:10:39;102830.0;;;4.82;72.83
67430;BME280;54298;52.076;5.264;2023-01-29T04:12:20;102817.0;;;4.83;72.66
67430;BME280;54298;52.076;5.264;2023-01-29T04:15:45;102813.00000000001;;;4.83;72.7
67430;BME280;54298;52.076;5.264;2023-01-29T04:17:28;102811.99999999999;;;4.79;72.84
67430;BME280;54298;52.076;5.264;2023-01-29T04:19:10;102797.0;;;4.84;72.77
67430;BME280;54298;52.076;5.264;2023-01-29T04:24:08;102807.0;;;4.82;72.56
67430;BME280;54298;52.076;5.264;2023-01-29T04:25:53;102808.99999999999;;;4.7;73.02
67430;BME280;54298;52.076;5.264;2023-01-29T04:27:48;102819.0;;;4.66;73.12
67430;BME280;54298;52.076;5.264;2023-01-29T04:29:39;102815.00000000001;;;4.7;73.05
67430;BME280;54298;52.076;5.264;2023-01-29T04:31:22;102808.0;;;4.51;73.56
67430;BME280;54298;52.076;5.264;2023-01-29T04:34:59;102809.99999999999;;;4.58;73.44
67430;BME280;54298;52.076;5.264;2023-01-29T04:36:45;102814.00000000001;;;4.63;73.05
67430;BME280;54298;52.076;5.264;2023-01-29T04:38:38;102803.0;;;4.63;73.0
67430;BME280;54298;52.076;5.264;2023-01-29T04:40:24;102809.99999999999;;;4.71;72.58
67430;BME280;54298;52.076;5.264;2023-01-29T04:42:11;102806.0;;;4.68;72.64
67430;BME280;54298;52.076;5.264;2023-01-29T04:43:58;102798.0;;;4.66;72.69
67430;BME280;54298;52.076;5.264;2023-01-29T04:47:35;102798.0;;;4.58;72.69
67430;BME280;54298;52.076;5.264;2023-01-29T04:49:25;102796.0;;;4.45;73.2
67430;BME280;54298;52.076;5.264;2023-01-29T04:51:10;102783.0;;;4.53;72.8
67430;BME280;54298;52.076;5.264;2023-01-29T04:52:54;102795.0;;;4.62;72.5
67430;BME280;54298;52.076;5.264;2023-01-29T04:54:50;102790.00000000001;;;4.63;72.36
67430;BME280;54298;52.076;5.264;2023-01-29T04:57:17;102790.00000000001;;;4.66;72.2
67430;BME280;54298;52.076;5.264;2023-01-29T04:58:59;102788.00000000001;;;4.64;72.17
67430;BME280;54298;52.076;5.264;2023-01-29T05:00:42;102784.99999999999;;;4.53;72.47
67430;BME280;54298;52.076;5.264;2023-01-29T05:04:03;102776.0;;;4.5;72.58
67430;BME280;54298;52.076;5.264;2023-01-29T05:05:45;102773.0;;;4.66;72.11
67430;BME280;54298;52.076;5.264;2023-01-29T05:07:23;102773.0;;;4.61;72.06
67430;BME280;54298;52.076;5.264;2023-01-29T05:09:05;102772.0;;;4.62;72.03
67430;BME280;54298;52.076;5.264;2023-01-29T05:12:21;102772.0;;;4.61;72.08
67430;BME280;54298;52.076;5.264;2023-01-29T05:14:03;102774.0;;;4.57;72.19
67430;BME280;54298;52.076;5.264;2023-01-29T05:15:45;102772.0;;;4.45;72.39
67430;BME280;54298;52.076;5.264;2023-01-29T05:17:24;102769.0;;;4.51;72.19
67430;BME280;54298;52.076;5.264;2023-01-29T05:20:40;102771.0;;;4.57;72.0
67430;BME280;54298;52.076;5.264;2023-01-29T05:22:21;102774.0;;;4.64;71.72
67430;BME280;54298;52.076;5.264;2023-01-29T05:24:09;102777.0;;;4.59;71.83
67430;BME280;54298;52.076;5.264;2023-01-29T05:25:46;102781.0;;;4.57;71.81
67430;BME280;54298;52.076;5.264;2023-01-29T05:30:06;102784.99999999999;;;4.61;71.7
67430;BME280;54298;52.076;5.264;2023-01-29T05:33:23;102783.0;;;4.51;71.78
67430;BME280;54298;52.076;5.264;2023-01-29T05:35:02;102788.00000000001;;;4.58;71.44
67430;BME280;54298;52.076;5.264;2023-01-29T05:36:39;102778.0;;;4.53;71.61
67430;BME280;54298;52.076;5.264;2023-01-29T05:38:16;102777.0;;;4.61;71.61
67430;BME280;54298;52.076;5.264;2023-01-29T05:41:31;102774.0;;;4.64;71.42
67430;BME280;54298;52.076;5.264;2023-01-29T05:43:14;102769.0;;;4.68;71.13
67430;BME280;54298;52.076;5.264;2023-01-29T05:44:51;102767.0;;;4.63;71.33
67430;BME280;54298;52.076;5.264;2023-01-29T05:46:28;102775.0;;;4.57;71.27
67430;BME280;54298;52.076;5.264;2023-01-29T05:49:42;102775.0;;;4.68;71.08
67430;BME280;54298;52.076;5.264;2023-01-29T05:51:19;102777.0;;;4.71;70.94
67430;BME280;54298;52.076;5.264;2023-01-29T05:52:56;102784.99999999999;;;4.63;71.08
67430;BME280;54298;52.076;5.264;2023-01-29T05:56:08;102781.0;;;4.61;71.22
67430;BME280;54298;52.076;5.264;2023-01-29T05:57:44;102788.00000000001;;;4.61;71.19
67430;BME280;54298;52.076;5.264;2023-01-29T05:59:22;102783.0;;;4.64;70.81
67430;BME280;54298;52.076;5.264;2023-01-29T06:02:44;102778.0;;;4.72;70.63
67430;BME280;54298;52.076;5.264;2023-01-29T06:04:21;102770.0;;;4.75;70.33
67430;BME280;54298;52.076;5.264;2023-01-29T06:05:57;102756.0;;;4.64;70.48
67430;BME280;54298;52.076;5.264;2023-01-29T06:07:34;102755.0;;;4.57;70.83
67430;BME280;54298;52.076;5.264;2023-01-29T06:10:47;102756.0;;;4.62;70.77
67430;BME280;54298;52.076;5.264;2023-01-29T06:12:25;102756.0;;;4.7;70.37
67430;BME280;54298;52.076;5.264;2023-01-29T06:14:02;102757.0;;;4.74;70.44
67430;BME280;54298;52.076;5.264;2023-01-29T06:17:17;102745.0;;;4.74;70.44
67430;BME280;54298;52.076;5.264;2023-01-29T06:18:54;102739.00000000001;;;4.68;70.47
67430;BME280;54298;52.076;5.264;2023-01-29T06:20:31;102736.99999999999;;;4.66;70.47
67430;BME280;54298;52.076;5.264;2023-01-29T06:22:07;102742.0;;;4.63;70.49
67430;BME280;54298;52.076;5.264;2023-01-29T06:25:21;102747.0;;;4.38;70.61
67430;BME280;54298;52.076;5.264;2023-01-29T06:26:58;102743.0;;;4.54;70.36
67430;BME280;54298;52.076;5.264;2023-01-29T06:28:34;102736.99999999999;;;4.51;70.42
67430;BME280;54298;52.076;5.264;2023-01-29T06:31:48;102740.00000000001;;;4.62;70.24
67430;BME280;54298;52.076;5.264;2023-01-29T06:33:24;102734.99999999999;;;4.57;70.55
67430;BME280;54298;52.076;5.264;2023-01-29T06:35:01;102728.0;;;4.61;70.49
67430;BME280;54298;52.076;5.264;2023-01-29T06:36:41;102727.0;;;4.62;70.27
67430;BME280;54298;52.076;5.264;2023-01-29T06:39:53;102726.0;;;4.67;70.19
67430;BME280;54298;52.076;5.264;2023-01-29T06:41:30;102733.99999999999;;;4.57;70.3
67430;BME280;54298;52.076;5.264;2023-01-29T06:43:06;102738.00000000001;;;4.64;70.28
67430;BME280;54298;52.076;5.264;2023-01-29T06:46:20;102739.00000000001;;;4.58;70.3
67430;BME280;54298;52.076;5.264;2023-01-29T06:47:56;102732.0;;;4.54;70.48
67430;BME280;54298;52.076;5.264;2023-01-29T06:49:33;102730.0;;;4.5;70.64
67430;BME280;54298;52.076;5.264;2023-01-29T06:52:47;102734.99999999999;;;4.64;70.33
67430;BME280;54298;52.076;5.264;2023-01-29T06:55:59;102733.0;;;4.64;70.06
67430;BME280;54298;52.076;5.264;2023-01-29T06:57:36;102736.99999999999;;;4.71;69.72
67430;BME280;54298;52.076;5.264;2023-01-29T07:00:50;102741.00000000001;;;4.62;69.83
67430;BME280;54298;52.076;5.264;2023-01-29T07:02:27;102736.99999999999;;;4.58;70.02
67430;BME280;54298;52.076;5.264;2023-01-29T07:04:04;102732.0;;;4.53;70.02
67430;BME280;54298;52.076;5.264;2023-01-29T07:07:18;102738.00000000001;;;4.57;70.08
67430;BME280;54298;52.076;5.264;2023-01-29T07:08:54;102733.99999999999;;;4.7;69.77
67430;BME280;54298;52.076;5.264;2023-01-29T07:10:31;102733.0;;;4.66;69.83
67430;BME280;54298;52.076;5.264;2023-01-29T07:13:44;102723.0;;;4.63;69.97
67430;BME280;54298;52.076;5.264;2023-01-29T07:15:21;102726.0;;;4.59;69.94
67430;BME280;54298;52.076;5.264;2023-01-29T07:16:57;102730.0;;;4.67;69.66
67430;BME280;54298;52.076;5.264;2023-01-29T07:18:35;102724.0;;;4.51;70.22
67430;BME280;54298;52.076;5.264;2023-01-29T07:21:48;102732.0;;;4.58;70.19
67430;BME280;54298;52.076;5.264;2023-01-29T07:23:24;102732.0;;;4.39;70.95
67430;BME280;54298;52.076;5.264;2023-01-29T07:25:01;102733.99999999999;;;4.53;70.56
67430;BME280;54298;52.076;5.264;2023-01-29T07:28:14;102733.99999999999;;;4.53;70.86
67430;BME280;54298;52.076;5.264;2023-01-29T07:29:51;102734.99999999999;;;4.67;70.59
67430;BME280;54298;52.076;5.264;2023-01-29T07:31:29;102730.0;;;4.57;70.94
67430;BME280;54298;52.076;5.264;2023-01-29T07:33:08;102732.0;;;4.54;71.02
67430;BME280;54298;52.076;5.264;2023-01-29T07:36:21;102724.0;;;4.57;71.11
67430;BME280;54298;52.076;5.264;2023-01-29T07:37:59;102727.0;;;4.57;70.84
67430;BME280;54298;52.076;5.264;2023-01-29T07:39:35;102731.0;;;4.57;70.56
67430;BME280;54298;52.076;5.264;2023-01-29T07:42:48;102733.99999999999;;;4.51;70.8
67430;BME280;54298;52.076;5.264;2023-01-29T07:44:25;102739.00000000001;;;4.39;70.92
67430;BME280;54298;52.076;5.264;2023-01-29T07:46:02;102738.00000000001;;;4.42;70.48
67430;BME280;54298;52.076;5.264;2023-01-29T07:49:15;102728.0;;;4.51;70.44
67430;BME280;54298;52.076;5.264;2023-01-29T07:50:53;102724.0;;;4.39;70.61
67430;BME280;54298;52.076;5.264;2023-01-29T07:52:31;102719.0;;;4.46;70.47
67430;BME280;54298;52.076;5.264;2023-01-29T07:54:08;102717.0;;;4.45;70.59
67430;BME280;54298;52.076;5.264;2023-01-29T07:57:22;102718.0;;;4.3;70.66
67430;BME280;54298;52.076;5.264;2023-01-29T07:58:59;102713.00000000001;;;4.46;70.22
67430;BME280;54298;52.076;5.264;2023-01-29T08:00:36;102707.0;;;4.53;70.06
67430;BME280;54298;52.076;5.264;2023-01-29T08:03:50;102706.0;;;4.53;70.05
67430;BME280;54298;52.076;5.264;2023-01-29T08:05:27;102706.0;;;4.45;69.94
67430;BME280;54298;52.076;5.264;2023-01-29T08:07:04;102703.0;;;4.34;70.23
67430;BME280;54298;52.076;5.264;2023-01-29T08:08:41;102701.0;;;4.46;70.11
67430;BME280;54298;52.076;5.264;2023-01-29T08:11:56;102697.0;;;4.41;70.19
67430;BME280;54298;52.076;5.264;2023-01-29T08:13:33;102691.00000000001;;;4.49;69.91
67430;BME280;54298;52.076;5.264;2023-01-29T08:15:10;102683.99999999999;;;4.38;70.02
67430;BME280;54298;52.076;5.264;2023-01-29T08:18:24;102683.0;;;4.53;69.95
67430;BME280;54298;52.076;5.264;2023-01-29T08:20:01;102683.0;;;4.62;69.55
67430;BME280;54298;52.076;5.264;2023-01-29T08:21:38;102686.99999999999;;;4.62;69.52
67430;BME280;54298;52.076;5.264;2023-01-29T08:24:52;102686.99999999999;;;4.59;69.53
67430;BME280;54298;52.076;5.264;2023-01-29T08:26:28;102683.0;;;4.63;69.17
67430;BME280;54298;52.076;5.264;2023-01-29T08:28:05;102686.99999999999;;;4.5;69.56
67430;BME280;54298;52.076;5.264;2023-01-29T08:29:42;102686.99999999999;;;4.62;69.61
67430;BME280;54298;52.076;5.264;2023-01-29T08:32:55;102682.0;;;4.7;69.2
67430;BME280;54298;52.076;5.264;2023-01-29T08:34:32;102688.00000000001;;;4.67;69.22
67430;BME280;54298;52.076;5.264;2023-01-29T08:36:10;102682.0;;;4.67;68.94
67430;BME280;54298;52.076;5.264;2023-01-29T08:39:31;102684.99999999999;;;4.67;69.2
67430;BME280;54298;52.076;5.264;2023-01-29T08:41:08;102682.0;;;4.59;69.22
67430;BME280;54298;52.076;5.264;2023-01-29T08:42:44;102681.0;;;4.7;69.11
67430;BME280;54298;52.076;5.264;2023-01-29T08:44:20;102676.0;;;4.64;68.91
67430;BME280;54298;52.076;5.264;2023-01-29T08:47:34;102669.0;;;4.72;68.78
67430;BME280;54298;52.076;5.264;2023-01-29T08:49:11;102665.00000000001;;;4.71;68.62
67430;BME280;54298;52.076;5.264;2023-01-29T08:50:48;102667.0;;;4.55;69.2
67430;BME280;54298;52.076;5.264;2023-01-29T08:54:00;102663.00000000001;;;4.63;68.99
67430;BME280;54298;52.076;5.264;2023-01-29T08:55:38;102663.00000000001;;;4.8;68.66
67430;BME280;54298;52.076;5.264;2023-01-29T08:57:14;102656.0;;;4.71;68.73
67430;BME280;54298;52.076;5.264;2023-01-29T08:58:51;102656.0;;;4.53;69.36
67430;BME280;54298;52.076;5.264;2023-01-29T09:02:05;102655.0;;;4.53;69.06
67430;BME280;54298;52.076;5.264;2023-01-29T09:03:42;102654.0;;;4.62;69.05
67430;BME280;54298;52.076;5.264;2023-01-29T09:05:19;102663.00000000001;;;4.74;69.03
67430;BME280;54298;52.076;5.264;2023-01-29T09:08:33;102657.0;;;4.83;68.45
67430;BME280;54298;52.076;5.264;2023-01-29T09:10:11;102659.99999999999;;;4.74;68.45
67430;BME280;54298;52.076;5.264;2023-01-29T09:11:48;102659.99999999999;;;4.62;68.83
67430;BME280;54298;52.076;5.264;2023-01-29T09:15:01;102665.00000000001;;;4.71;68.77
67430;BME280;54298;52.076;5.264;2023-01-29T09:16:38;102658.0;;;4.58;68.94
67430;BME280;54298;52.076;5.264;2023-01-29T09:18:15;102658.99999999999;;;4.7;68.91
67430;BME280;54298;52.076;5.264;2023-01-29T09:19:52;102661.99999999999;;;4.75;68.77
67430;BME280;54298;52.076;5.264;2023-01-29T09:23:06;102661.99999999999;;;4.75;68.8
67430;BME280;54298;52.076;5.264;2023-01-29T09:24:44;102657.0;;;4.78;68.73
67430;BME280;54298;52.076;5.264;2023-01-29T09:26:21;102658.0;;;4.74;68.91
67430;BME280;54298;52.076;5.264;2023-01-29T09:29:36;102658.99999999999;;;4.74;68.91
67430;BME280;54298;52.076;5.264;2023-01-29T09:31:12;102658.99999999999;;;4.72;68.87
67430;BME280;54298;52.076;5.264;2023-01-29T09:32:49;102663.00000000001;;;4.82;68.64
67430;BME280;54298;52.076;5.264;2023-01-29T09:34:26;102658.99999999999;;;4.78;69.05
67430;BME280;54298;52.076;5.264;2023-01-29T09:37:39;102661.99999999999;;;4.82;68.91
67430;BME280;54298;52.076;5.264;2023-01-29T09:39:15;102661.99999999999;;;4.71;68.91
67430;BME280;54298;52.076;5.264;2023-01-29T09:40:57;102656.0;;;4.93;68.62
67430;BME280;54298;52.076;5.264;2023-01-29T09:44:32;102655.0;;;4.99;68.13
67430;BME280;54298;52.076;5.264;2023-01-29T09:46:32;102655.0;;;4.97;68.22
67430;BME280;54298;52.076;5.264;2023-01-29T09:48:13;102654.0;;;4.99;68.03
67430;BME280;54298;52.076;5.264;2023-01-29T09:49:51;102658.0;;;4.74;68.62
67430;BME280;54298;52.076;5.264;2023-01-29T09:51:37;102656.0;;;4.83;68.44
67430;BME280;54298;52.076;5.264;2023-01-29T09:53:19;102653.0;;;4.95;68.08
67430;BME280;54298;52.076;5.264;2023-01-29T09:56:44;102658.0;;;4.91;68.58
67430;BME280;54298;52.076;5.264;2023-01-29T09:58:25;102655.0;;;4.95;68.36
67430;BME280;54298;52.076;5.264;2023-01-29T10:00:04;102650.0;;;4.95;68.14
67430;BME280;54298;52.076;5.264;2023-01-29T10:01:48;102654.0;;;5.04;68.02
67430;BME280;54298;52.076;5.264;2023-01-29T10:05:35;102651.0;;;5.15;67.84
67430;BME280;54298;52.076;5.264;2023-01-29T10:07:36;102648.0;;;5.22;67.47
67430;BME280;54298;52.076;5.264;2023-01-29T10:10:01;102653.0;;;5.3;67.37
67430;BME280;54298;52.076;5.264;2023-01-29T10:12:01;102648.0;;;5.27;67.42
67430;BME280;54298;52.076;5.264;2023-01-29T10:13:51;102647.0;;;5.24;67.37
67430;BME280;54298;52.076;5.264;2023-01-29T10:15:46;102648.0;;;5.2;67.52
67430;BME280;54298;52.076;5.264;2023-01-29T10:17:39;102652.0;;;5.26;67.25
67430;BME280;54298;52.076;5.264;2023-01-29T10:20:05;102646.0;;;5.28;67.35
67430;BME280;54298;52.076;5.264;2023-01-29T10:23:06;102648.0;;;5.18;67.44
67430;BME280;54298;52.076;5.264;2023-01-29T10:24:56;102646.0;;;5.28;67.2
67430;BME280;54298;52.076;5.264;2023-01-29T10:28:17;102645.0;;;5.27;67.19
67430;BME280;54298;52.076;5.264;2023-01-29T10:29:55;102646.0;;;5.3;67.25
67430;BME280;54298;52.076;5.264;2023-01-29T10:31:37;102634.99999999999;;;5.2;67.44
67430;BME280;54298;52.076;5.264;2023-01-29T10:33:18;102632.0;;;5.28;67.14
67430;BME280;54298;52.076;5.264;2023-01-29T10:36:58;102627.0;;;5.28;67.3
67430;BME280;54298;52.076;5.264;2023-01-29T10:38:41;102627.0;;;5.2;67.74
67430;BME280;54298;52.076;5.264;2023-01-29T10:40:20;102627.0;;;5.22;67.91
67430;BME280;54298;52.076;5.264;2023-01-29T10:42:12;102624.0;;;5.24;67.78
67430;BME280;54298;52.076;5.264;2023-01-29T10:44:00;102620.0;;;5.14;68.02
67430;BME280;54298;52.076;5.264;2023-01-29T10:45:53;102615.00000000001;;;5.14;68.08
67430;BME280;54298;52.076;5.264;2023-01-29T10:50:35;102608.0;;;5.12;68.19
67430;BME280;54298;52.076;5.264;2023-01-29T10:52:31;102601.0;;;5.13;67.95
67430;BME280;54298;52.076;5.264;2023-01-29T10:54:24;102595.0;;;5.04;68.53
67430;BME280;54298;52.076;5.264;2023-01-29T10:56:24;102594.0;;;5.22;67.98
67430;BME280;54298;52.076;5.264;2023-01-29T11:00:02;102592.0;;;5.26;68.55
67430;BME280;54298;52.076;5.264;2023-01-29T11:01:43;102583.99999999999;;;5.11;68.33
67430;BME280;54298;52.076;5.264;2023-01-29T11:03:22;102583.0;;;5.17;68.27
67430;BME280;54298;52.076;5.264;2023-01-29T11:05:00;102581.0;;;5.26;68.02
67430;BME280;54298;52.076;5.264;2023-01-29T11:06:37;102574.0;;;5.48;67.81
67430;BME280;54298;52.076;5.264;2023-01-29T11:09:58;102575.0;;;5.43;67.66
67430;BME280;54298;52.076;5.264;2023-01-29T11:11:41;102567.0;;;5.39;68.12
67430;BME280;54298;52.076;5.264;2023-01-29T11:13:18;102566.00000000001;;;5.45;67.67
67430;BME280;54298;52.076;5.264;2023-01-29T11:15:15;102565.00000000001;;;5.45;67.52
67430;BME280;54298;52.076;5.264;2023-01-29T11:16:54;102564.00000000001;;;5.5;67.75
67430;BME280;54298;52.076;5.264;2023-01-29T11:20:30;102561.99999999999;;;5.51;67.52